createdAt,value
2022-12-25T00:01:22.675Z,100761.25
2022-12-25T00:03:50.424Z,100768.22
2022-12-25T00:06:18.032Z,100761.28
2022-12-25T00:08:46.372Z,100748.72
2022-12-25T00:11:16.236Z,100757.22
2022-12-25T00:13:45.167Z,100766.09
2022-12-25T00:16:21.521Z,100761.09
2022-12-25T00:18:50.076Z,100762.63
2022-12-25T00:21:18.147Z,100758.63
2022-12-25T00:23:45.355Z,100747.16
2022-12-25T00:26:17.612Z,100775.88
2022-12-25T00:28:45.066Z,100766.38
2022-12-25T00:31:18.217Z,100765.28
2022-12-25T00:33:47.261Z,100757.84
2022-12-25T00:36:16.180Z,100765.06
2022-12-25T00:38:44.092Z,100763.31
2022-12-25T00:41:13.401Z,100755.31
2022-12-25T00:43:42.205Z,100754.16
2022-12-25T00:46:12.425Z,100772.69
2022-12-25T00:48:40.552Z,100744.13
2022-12-25T00:51:11.498Z,100745.59
2022-12-25T00:53:38.922Z,100743.09
2022-12-25T00:56:07.601Z,100755.06
2022-12-25T00:58:36.043Z,100742.59
2022-12-25T01:01:04.032Z,100742.16
2022-12-25T01:03:31.191Z,100748.25
2022-12-25T01:06:01.687Z,100761.41
2022-12-25T01:08:36.402Z,100746.91
2022-12-25T01:11:06.662Z,100738.94
2022-12-25T01:13:35.739Z,100755.88
2022-12-25T01:16:11.414Z,100753.00
2022-12-25T01:18:39.262Z,100745.06
2022-12-25T01:21:18.371Z,100760.09
2022-12-25T01:23:45.619Z,100765.63
2022-12-25T01:26:14.143Z,100759.69
2022-12-25T01:28:41.703Z,100752.50
2022-12-25T01:31:12.039Z,100755.31
2022-12-25T01:33:40.708Z,100757.38
2022-12-25T01:36:19.023Z,100747.56
2022-12-25T01:38:47.271Z,100750.50
2022-12-25T01:41:16.815Z,100749.81
2022-12-25T01:44:37.424Z,100751.13
2022-12-25T01:47:05.692Z,100732.28
2022-12-25T01:49:36.590Z,100744.66
2022-12-25T01:52:06.706Z,100747.16
2022-12-25T01:54:39.495Z,100736.84
2022-12-25T01:57:10.932Z,100733.94
2022-12-25T01:59:38.196Z,100739.28
2022-12-25T02:02:05.457Z,100726.94
2022-12-25T02:04:40.539Z,100744.34
2022-12-25T02:07:15.697Z,100735.47
2022-12-25T02:09:45.354Z,100741.84
2022-12-25T02:12:20.305Z,100742.91
2022-12-25T02:14:49.867Z,100736.13
2022-12-25T02:17:29.254Z,100750.00
2022-12-25T02:20:50.199Z,100751.91
2022-12-25T02:23:49.672Z,100751.47
2022-12-25T02:26:33.263Z,100741.50
2022-12-25T02:29:10.478Z,100756.28
2022-12-25T02:32:10.934Z,100755.38
2022-12-25T02:34:41.083Z,100756.69
2022-12-25T02:37:16.503Z,100760.56
2022-12-25T02:40:15.879Z,100767.81
2022-12-25T02:43:10.641Z,100763.09
2022-12-25T02:46:41.482Z,100757.63
2022-12-25T02:49:47.090Z,100755.31
2022-12-25T02:52:35.984Z,100760.31
2022-12-25T02:55:33.072Z,100745.53
2022-12-25T02:58:23.641Z,100741.38
2022-12-25T03:01:16.363Z,100737.69
2022-12-25T03:04:05.752Z,100744.72
2022-12-25T03:09:45.243Z,100748.19
2022-12-25T03:12:42.609Z,100746.00
2022-12-25T03:15:31.376Z,100739.53
2022-12-25T03:18:03.750Z,100748.91
2022-12-25T03:20:50.705Z,100753.72
2022-12-25T03:23:44.372Z,100750.81
2022-12-25T03:26:29.850Z,100729.91
2022-12-25T03:28:56.854Z,100761.06
2022-12-25T03:31:53.838Z,100761.06
2022-12-25T03:35:12.480Z,100743.00
2022-12-25T03:37:45.319Z,100752.59
2022-12-25T03:40:48.688Z,100757.78
2022-12-25T03:43:34.470Z,100765.09
2022-12-25T03:46:27.796Z,100762.84
2022-12-25T03:49:22.116Z,100770.06
2022-12-25T03:52:10.842Z,100768.94
2022-12-25T03:54:59.953Z,100759.66
2022-12-25T03:57:45.644Z,100770.22
2022-12-25T04:00:31.723Z,100780.50
2022-12-25T04:03:18.821Z,100783.31
2022-12-25T04:06:04.204Z,100759.06
2022-12-25T04:08:50.103Z,100771.63
2022-12-25T04:11:35.957Z,100765.31
2022-12-25T04:14:21.658Z,100786.66
2022-12-25T04:17:07.359Z,100785.22
2022-12-25T04:19:52.802Z,100765.50
2022-12-25T04:22:55.256Z,100789.31
2022-12-25T04:25:40.800Z,100789.81
2022-12-25T04:28:26.897Z,100780.03
2022-12-25T04:31:12.389Z,100776.69
2022-12-25T04:33:57.958Z,100785.38
2022-12-25T04:36:24.922Z,100775.59
2022-12-25T04:38:52.095Z,100776.25
2022-12-25T04:41:19.210Z,100769.44
2022-12-25T04:43:46.365Z,100767.03
2022-12-25T04:46:13.465Z,100781.34
2022-12-25T04:48:40.716Z,100790.38
2022-12-25T04:51:12.023Z,100794.25
2022-12-25T04:53:39.095Z,100787.38
2022-12-25T04:56:06.487Z,100806.91
2022-12-25T04:58:33.651Z,100787.97
2022-12-25T05:01:03.842Z,100802.38
2022-12-25T05:03:32.715Z,100794.56
2022-12-25T05:06:01.036Z,100799.31
2022-12-25T05:08:33.222Z,100800.13
2022-12-25T05:11:04.844Z,100800.19
2022-12-25T05:13:32.374Z,100795.34
2022-12-25T05:15:59.525Z,100804.38
2022-12-25T05:18:26.879Z,100801.03
2022-12-25T05:20:55.290Z,100803.72
2022-12-25T05:23:22.981Z,100805.66
2022-12-25T05:25:50.108Z,100787.94
2022-12-25T05:28:17.306Z,100793.31
2022-12-25T05:30:44.599Z,100809.91
2022-12-25T05:33:11.865Z,100807.72
2022-12-25T05:35:39.882Z,100826.84
2022-12-25T05:38:08.052Z,100834.28
2022-12-25T05:40:38.622Z,100826.56
2022-12-25T05:43:06.143Z,100828.00
2022-12-25T05:45:33.290Z,100833.66
2022-12-25T05:48:00.468Z,100842.78
2022-12-25T05:50:27.716Z,100839.31
2022-12-25T05:53:08.345Z,100849.91
2022-12-25T05:55:41.420Z,100833.72
2022-12-25T05:58:08.948Z,100845.81
2022-12-25T06:00:36.503Z,100848.38
2022-12-25T06:03:03.947Z,100832.13
2022-12-25T06:05:31.737Z,100827.00
2022-12-25T06:07:59.029Z,100831.41
2022-12-25T06:10:26.239Z,100824.47
2022-12-25T06:12:53.416Z,100836.56
2022-12-25T06:15:20.677Z,100849.03
2022-12-25T06:17:47.736Z,100852.13
2022-12-25T06:20:14.915Z,100853.53
2022-12-25T06:22:42.009Z,100866.81
2022-12-25T06:25:09.997Z,100853.75
2022-12-25T06:27:37.462Z,100852.97
2022-12-25T06:30:05.448Z,100861.97
2022-12-25T06:32:32.594Z,100852.06
2022-12-25T06:34:59.845Z,100848.00
2022-12-25T06:37:26.883Z,100839.91
2022-12-25T06:39:54.325Z,100863.25
2022-12-25T06:42:21.631Z,100859.19
2022-12-25T06:44:48.890Z,100867.00
2022-12-25T06:47:16.224Z,100864.66
2022-12-25T06:49:43.509Z,100877.72
2022-12-25T06:52:10.767Z,100873.88
2022-12-25T06:54:37.850Z,100892.06
2022-12-25T06:57:05.026Z,100882.22
2022-12-25T06:59:32.124Z,100888.38
2022-12-25T07:01:59.685Z,100886.16
2022-12-25T07:04:33.626Z,100891.38
2022-12-25T07:07:08.103Z,100875.94
2022-12-25T07:09:36.393Z,100899.72
2022-12-25T07:12:26.472Z,100901.09
2022-12-25T07:14:56.759Z,100894.91
2022-12-25T07:17:24.546Z,100903.66
2022-12-25T07:19:51.871Z,100904.47
2022-12-25T07:22:19.359Z,100895.59
2022-12-25T07:24:46.583Z,100898.13
2022-12-25T07:27:13.849Z,100891.16
2022-12-25T07:29:41.070Z,100896.66
2022-12-25T07:32:08.696Z,100873.88
2022-12-25T07:34:35.966Z,100884.88
2022-12-25T07:37:03.114Z,100879.06
2022-12-25T07:39:30.390Z,100871.09
2022-12-25T07:41:57.510Z,100875.63
2022-12-25T07:44:27.821Z,100870.91
2022-12-25T07:46:55.063Z,100871.69
2022-12-25T07:49:22.262Z,100870.44
2022-12-25T07:51:49.726Z,100868.78
2022-12-25T07:54:16.945Z,100865.25
2022-12-25T07:56:44.173Z,100872.59
2022-12-25T07:59:11.844Z,100874.06
2022-12-25T08:01:39.267Z,100864.38
2022-12-25T08:04:08.279Z,100854.41
2022-12-25T08:06:36.080Z,100877.28
2022-12-25T08:09:06.374Z,100876.47
2022-12-25T08:11:33.883Z,100878.22
2022-12-25T08:14:01.016Z,100859.84
2022-12-25T08:16:28.332Z,100887.38
2022-12-25T08:18:55.429Z,100874.88
2022-12-25T08:21:22.694Z,100873.88
2022-12-25T08:23:50.167Z,100875.34
2022-12-25T08:26:22.216Z,100883.50
2022-12-25T08:28:50.431Z,100881.59
2022-12-25T08:31:22.547Z,100872.25
2022-12-25T08:33:51.925Z,100878.38
2022-12-25T08:36:19.472Z,100874.78
2022-12-25T08:38:47.693Z,100875.34
2022-12-25T08:41:15.827Z,100866.72
2022-12-25T08:43:43.462Z,100867.88
2022-12-25T08:46:10.850Z,100884.00
2022-12-25T08:48:38.221Z,100876.22
2022-12-25T08:51:08.681Z,100872.09
2022-12-25T08:53:35.831Z,100873.19
2022-12-25T08:56:07.217Z,100888.19
2022-12-25T08:58:34.853Z,100865.28
2022-12-25T09:01:02.161Z,100865.34
2022-12-25T09:03:32.283Z,100862.00
2022-12-25T09:06:05.293Z,100866.53
2022-12-25T09:08:32.898Z,100855.97
2022-12-25T09:11:05.202Z,100847.38
2022-12-25T09:13:32.978Z,100849.31
2022-12-25T09:16:00.707Z,100858.50
2022-12-25T09:18:28.062Z,100862.09
2022-12-25T09:21:06.877Z,100857.78
2022-12-25T09:23:34.855Z,100853.25
2022-12-25T09:26:04.612Z,100861.56
2022-12-25T09:28:32.559Z,100859.59
2022-12-25T09:31:00.365Z,100863.75
2022-12-25T09:33:28.118Z,100872.91
2022-12-25T09:36:04.661Z,100861.25
2022-12-25T09:38:32.482Z,100865.94
2022-12-25T09:41:05.408Z,100856.56
2022-12-25T09:43:39.395Z,100865.44
2022-12-25T09:46:14.026Z,100858.81
2022-12-25T09:48:47.549Z,100857.19
2022-12-25T09:51:17.513Z,100845.75
2022-12-25T09:53:53.177Z,100842.72
2022-12-25T09:56:27.194Z,100861.56
2022-12-25T09:58:55.029Z,100858.03
2022-12-25T10:01:37.870Z,100862.22
2022-12-25T10:04:37.468Z,100863.63
2022-12-25T10:07:36.664Z,100851.78
2022-12-25T10:10:04.257Z,100842.56
2022-12-25T10:12:42.766Z,100837.69
2022-12-25T10:15:31.487Z,100834.03
2022-12-25T10:18:23.753Z,100848.28
2022-12-25T10:20:54.654Z,100848.53
2022-12-25T10:23:30.889Z,100858.19
2022-12-25T10:25:58.364Z,100863.25
2022-12-25T10:28:32.836Z,100868.00
2022-12-25T10:31:07.935Z,100861.97
2022-12-25T10:33:35.209Z,100863.75
2022-12-25T10:36:02.557Z,100865.97
2022-12-25T10:38:29.637Z,100846.28
2022-12-25T10:41:11.558Z,100856.69
2022-12-25T10:43:51.498Z,100862.72
2022-12-25T10:46:20.955Z,100838.06
2022-12-25T10:48:58.055Z,100857.41
2022-12-25T10:51:34.305Z,100854.06
2022-12-25T10:54:27.260Z,100850.75
2022-12-25T10:56:54.298Z,100854.81
2022-12-25T10:59:21.743Z,100857.84
2022-12-25T11:01:53.687Z,100840.09
2022-12-25T11:04:28.661Z,100862.88
2022-12-25T11:07:06.644Z,100857.00
2022-12-25T11:09:34.739Z,100847.53
2022-12-25T11:12:02.082Z,100844.16
2022-12-25T11:14:30.848Z,100852.38
2022-12-25T11:17:11.853Z,100859.78
2022-12-25T11:19:39.481Z,100854.41
2022-12-25T11:22:17.894Z,100831.00
2022-12-25T11:24:47.732Z,100857.84
2022-12-25T11:27:30.102Z,100868.66
2022-12-25T11:30:03.437Z,100874.75
2022-12-25T11:32:46.700Z,100870.25
2022-12-25T11:35:17.352Z,100864.53
2022-12-25T11:37:50.820Z,100879.50
2022-12-25T11:40:25.300Z,100884.91
2022-12-25T11:43:07.842Z,100877.78
2022-12-25T11:46:10.683Z,100892.66
2022-12-25T11:48:44.949Z,100897.78
2022-12-25T11:51:15.701Z,100876.31
2022-12-25T11:54:04.238Z,100878.38
2022-12-25T11:56:31.712Z,100873.41
2022-12-25T11:59:31.082Z,100898.19
2022-12-25T12:02:22.835Z,100886.34
2022-12-25T12:05:02.397Z,100888.66
2022-12-25T12:07:32.287Z,100880.25
2022-12-25T12:10:21.216Z,100880.63
2022-12-25T12:13:11.234Z,100889.59
2022-12-25T12:15:47.064Z,100875.63
2022-12-25T12:18:26.711Z,100887.50
2022-12-25T12:21:11.547Z,100884.28
2022-12-25T12:24:09.596Z,100890.97
2022-12-25T12:26:41.220Z,100891.34
2022-12-25T12:29:30.345Z,100895.00
2022-12-25T12:32:02.143Z,100892.19
2022-12-25T12:34:48.135Z,100891.03
2022-12-25T12:37:24.812Z,100903.38
2022-12-25T12:39:54.809Z,100895.84
2022-12-25T12:42:39.060Z,100894.97
2022-12-25T12:45:18.570Z,100891.69
2022-12-25T12:47:49.227Z,100899.91
2022-12-25T12:50:39.994Z,100886.84
2022-12-25T12:53:30.102Z,100890.63
2022-12-25T12:56:09.052Z,100885.72
2022-12-25T12:58:39.853Z,100896.44
2022-12-25T13:01:28.443Z,100901.72
2022-12-25T13:04:23.061Z,100897.00
2022-12-25T13:07:03.319Z,100901.03
2022-12-25T13:09:41.095Z,100892.59
2022-12-25T13:12:09.431Z,100909.31
2022-12-25T13:14:38.090Z,100896.59
2022-12-25T13:17:08.802Z,100900.69
2022-12-25T13:19:37.916Z,100910.47
2022-12-25T13:22:07.071Z,100917.75
2022-12-25T13:24:37.248Z,100918.59
2022-12-25T13:27:26.083Z,100907.63
2022-12-25T13:29:53.398Z,100916.81
2022-12-25T13:32:29.847Z,100914.91
2022-12-25T13:34:58.588Z,100923.00
2022-12-25T13:37:29.055Z,100919.34
2022-12-25T13:40:04.961Z,100925.13
2022-12-25T13:42:36.527Z,100923.31
2022-12-25T13:45:07.302Z,100920.19
2022-12-25T13:47:38.843Z,100928.53
2022-12-25T13:50:26.297Z,100940.50
2022-12-25T13:52:55.779Z,100929.19
2022-12-25T13:55:28.598Z,100939.50
2022-12-25T13:57:59.426Z,100940.69
2022-12-25T14:00:35.772Z,100938.78
2022-12-25T14:03:05.410Z,100924.66
2022-12-25T14:05:41.744Z,100918.16
2022-12-25T14:08:16.522Z,100934.09
2022-12-25T14:10:48.551Z,100930.34
2022-12-25T14:13:18.457Z,100938.78
2022-12-25T14:15:48.057Z,100941.56
2022-12-25T14:18:17.352Z,100948.50
2022-12-25T14:21:05.035Z,100947.34
2022-12-25T14:23:42.834Z,100951.09
2022-12-25T14:26:23.086Z,100955.78
2022-12-25T14:28:53.803Z,100935.28
2022-12-25T14:31:22.088Z,100939.31
2022-12-25T14:33:50.969Z,100942.91
2022-12-25T14:36:19.329Z,100943.16
2022-12-25T14:38:57.174Z,100950.84
2022-12-25T14:41:38.029Z,100956.38
2022-12-25T14:44:27.757Z,100957.22
2022-12-25T14:47:18.927Z,100958.63
2022-12-25T14:49:47.576Z,100944.94
2022-12-25T14:52:20.670Z,100959.09
2022-12-25T14:54:55.987Z,100963.28
2022-12-25T14:57:28.742Z,100961.75
2022-12-25T15:00:02.915Z,100964.94
2022-12-25T15:02:40.760Z,100960.81
2022-12-25T15:05:27.314Z,100958.34
2022-12-25T15:08:01.956Z,100965.91
2022-12-25T15:10:58.755Z,100949.16
2022-12-25T15:14:56.758Z,100949.00
2022-12-25T15:17:29.844Z,100965.09
2022-12-25T15:20:00.865Z,100960.06
2022-12-25T15:22:37.505Z,100965.44
2022-12-25T15:25:15.526Z,100970.63
2022-12-25T15:27:42.751Z,100969.38
2022-12-25T15:30:11.198Z,100965.09
2022-12-25T15:32:40.630Z,100959.72
2022-12-25T15:35:16.415Z,100954.03
2022-12-25T15:37:43.586Z,100966.59
2022-12-25T15:40:13.821Z,100965.25
2022-12-25T15:42:45.017Z,100957.38
2022-12-25T15:45:21.362Z,100969.88
2022-12-25T15:47:48.898Z,100954.38
2022-12-25T15:50:16.823Z,100969.25
2022-12-25T15:52:44.064Z,100970.59
2022-12-25T15:55:11.592Z,100968.41
2022-12-25T15:57:42.437Z,100961.72
2022-12-25T16:00:17.778Z,100978.84
2022-12-25T16:02:45.496Z,100977.91
2022-12-25T16:05:12.884Z,100974.13
2022-12-25T16:07:40.212Z,100976.56
2022-12-25T16:10:12.017Z,100972.78
2022-12-25T16:12:39.486Z,100958.47
2022-12-25T16:15:07.195Z,100970.22
2022-12-25T16:17:34.409Z,100976.91
2022-12-25T16:20:01.737Z,100973.72
2022-12-25T16:22:30.829Z,100968.25
2022-12-25T16:24:58.063Z,100976.59
2022-12-25T16:27:25.491Z,100982.69
2022-12-25T16:29:52.842Z,100971.59
2022-12-25T16:32:22.476Z,100978.06
2022-12-25T16:34:49.886Z,100954.72
2022-12-25T16:37:17.084Z,100966.72
2022-12-25T16:39:44.281Z,100976.06
2022-12-25T16:42:11.365Z,100965.47
2022-12-25T16:44:38.560Z,100948.28
2022-12-25T16:47:05.885Z,100949.75
2022-12-25T16:49:33.137Z,100959.66
2022-12-25T16:52:00.191Z,100955.94
2022-12-25T16:54:27.585Z,100960.78
2022-12-25T16:56:54.954Z,100964.09
2022-12-25T16:59:22.087Z,100963.34
2022-12-25T17:01:49.363Z,100945.47
2022-12-25T17:04:16.737Z,100955.72
2022-12-25T17:06:43.824Z,100956.47
2022-12-25T17:09:11.239Z,100932.47
2022-12-25T17:11:38.340Z,100949.16
2022-12-25T17:14:06.358Z,100954.75
2022-12-25T17:16:36.069Z,100956.56
2022-12-25T17:19:08.107Z,100949.09
2022-12-25T17:21:38.525Z,100959.25
2022-12-25T17:24:06.252Z,100966.97
2022-12-25T17:26:33.702Z,100956.56
2022-12-25T17:29:01.301Z,100953.41
2022-12-25T17:31:29.202Z,100945.47
2022-12-25T17:33:56.527Z,100961.63
2022-12-25T17:36:23.863Z,100957.97
2022-12-25T17:38:51.216Z,100950.44
2022-12-25T17:41:21.702Z,100962.16
2022-12-25T17:43:48.898Z,100966.13
2022-12-25T17:46:27.437Z,100963.72
2022-12-25T17:48:57.039Z,100968.56
2022-12-25T17:51:26.464Z,100952.53
2022-12-25T17:53:56.919Z,100961.16
2022-12-25T17:56:25.038Z,100957.72
2022-12-25T17:58:55.329Z,100970.25
2022-12-25T18:01:24.099Z,100971.78
2022-12-25T18:03:52.260Z,100965.19
2022-12-25T18:06:23.217Z,100968.03
2022-12-25T18:08:50.446Z,100964.66
2022-12-25T18:11:20.780Z,100962.56
2022-12-25T18:13:50.266Z,100965.63
2022-12-25T18:16:20.982Z,100955.44
2022-12-25T18:18:52.205Z,100968.22
2022-12-25T18:21:22.504Z,100970.41
2022-12-25T18:23:50.601Z,100971.19
2022-12-25T18:26:18.756Z,100967.06
2022-12-25T18:28:47.381Z,100971.81
2022-12-25T18:31:23.310Z,100974.78
2022-12-25T18:33:51.605Z,100963.81
2022-12-25T18:36:21.822Z,100974.28
2022-12-25T18:38:50.550Z,100971.09
2022-12-25T18:41:18.984Z,100965.50
2022-12-25T18:43:53.019Z,100973.38
2022-12-25T18:46:25.760Z,100972.63
2022-12-25T18:48:54.729Z,100983.78
2022-12-25T18:51:22.510Z,100987.06
2022-12-25T18:53:50.166Z,100986.63
2022-12-25T18:56:18.413Z,100997.50
2022-12-25T18:58:47.008Z,100969.34
2022-12-25T19:01:17.690Z,100982.88
2022-12-25T19:03:46.040Z,100988.09
2022-12-25T19:06:18.866Z,100979.09
2022-12-25T19:08:46.542Z,100978.22
2022-12-25T19:11:14.318Z,100984.03
2022-12-25T19:13:42.036Z,100991.00
2022-12-25T19:16:09.717Z,100976.06
2022-12-25T19:18:38.363Z,100969.97
2022-12-25T19:21:07.940Z,100977.72
2022-12-25T19:23:37.239Z,100975.22
2022-12-25T19:26:06.325Z,100989.38
2022-12-25T19:28:36.019Z,100973.44
2022-12-25T19:31:04.845Z,100992.16
2022-12-25T19:33:32.350Z,100975.25
2022-12-25T19:36:05.102Z,100984.94
2022-12-25T19:38:33.157Z,100984.81
2022-12-25T19:41:05.031Z,100982.94
2022-12-25T19:43:34.569Z,100984.56
2022-12-25T19:46:02.304Z,100981.94
2022-12-25T19:48:31.460Z,100982.13
2022-12-25T19:50:59.454Z,100968.63
2022-12-25T19:53:27.586Z,100985.25
2022-12-25T19:55:54.940Z,100981.19
2022-12-25T19:58:23.726Z,100974.41
2022-12-25T20:01:03.033Z,100991.16
2022-12-25T20:03:30.332Z,101000.56
2022-12-25T20:05:58.026Z,100985.16
2022-12-25T20:08:25.324Z,100992.69
2022-12-25T20:10:53.223Z,100988.81
2022-12-25T20:13:21.224Z,100987.25
2022-12-25T20:15:48.661Z,100993.56
2022-12-25T20:18:16.935Z,101003.09
2022-12-25T20:20:45.078Z,101007.31
2022-12-25T20:23:12.667Z,101006.25
2022-12-25T20:25:42.009Z,101002.28
2022-12-25T20:28:09.251Z,101015.09
2022-12-25T20:30:40.314Z,101011.28
2022-12-25T20:33:07.679Z,101011.81
2022-12-25T20:35:34.981Z,101011.47
2022-12-25T20:38:02.225Z,101017.84
2022-12-25T20:40:29.537Z,101011.84
2022-12-25T20:42:56.727Z,101005.28
2022-12-25T20:45:24.056Z,101008.56
2022-12-25T20:47:51.307Z,101008.88
2022-12-25T20:50:18.501Z,101016.28
2022-12-25T20:52:45.664Z,100989.94
2022-12-25T20:55:14.323Z,101024.47
2022-12-25T20:57:41.732Z,101012.31
2022-12-25T21:00:10.460Z,101017.00
2022-12-25T21:02:38.353Z,101015.28
2022-12-25T21:05:08.155Z,101023.47
2022-12-25T21:07:35.564Z,101009.38
2022-12-25T21:10:03.449Z,101009.06
2022-12-25T21:12:31.593Z,101010.09
2022-12-25T21:14:58.711Z,101023.34
2022-12-25T21:17:25.863Z,101010.13
2022-12-25T21:19:53.083Z,101002.53
2022-12-25T21:22:20.919Z,101003.63
2022-12-25T21:24:52.192Z,101019.97
2022-12-25T21:27:19.980Z,101010.16
2022-12-25T21:29:47.179Z,101020.47
2022-12-25T21:32:32.661Z,101012.00
2022-12-25T21:34:59.639Z,101028.22
2022-12-25T21:37:26.910Z,101003.19
2022-12-25T21:39:54.013Z,100997.84
2022-12-25T21:42:21.500Z,101013.88
2022-12-25T21:44:49.448Z,101017.38
2022-12-25T21:47:17.228Z,101003.63
2022-12-25T21:50:02.812Z,100997.53
2022-12-25T21:52:30.472Z,101008.34
2022-12-25T21:54:57.624Z,101017.22
2022-12-25T21:57:24.739Z,101016.97
2022-12-25T21:59:52.006Z,101023.38
2022-12-25T22:02:19.251Z,101018.06
2022-12-25T22:04:46.641Z,101019.63
2022-12-25T22:07:20.072Z,101019.31
2022-12-25T22:09:49.143Z,101022.81
2022-12-25T22:12:36.782Z,101019.56
2022-12-25T22:15:09.777Z,101015.94
2022-12-25T22:17:58.516Z,101013.44
2022-12-25T22:20:37.449Z,101014.94
2022-12-25T22:23:05.327Z,101014.53
2022-12-25T22:25:32.420Z,101023.06
2022-12-25T22:27:59.857Z,101016.88
2022-12-25T22:30:29.254Z,101018.13
2022-12-25T22:32:56.983Z,101021.38
2022-12-25T22:35:24.453Z,101030.63
2022-12-25T22:37:51.658Z,101028.78
2022-12-25T22:40:20.079Z,101035.47
2022-12-25T22:42:48.020Z,101032.53
2022-12-25T22:45:15.660Z,101044.28
2022-12-25T22:47:42.817Z,101045.38
2022-12-25T22:50:11.491Z,101046.38
2022-12-25T22:52:39.028Z,101052.88
2022-12-25T22:55:08.416Z,101055.06
2022-12-25T22:57:36.358Z,101053.72
2022-12-25T23:00:06.719Z,101052.72
2022-12-25T23:02:35.412Z,101042.81
2022-12-25T23:05:03.585Z,101070.50
2022-12-25T23:07:31.790Z,101053.22
2022-12-25T23:09:58.958Z,101063.44
2022-12-25T23:12:45.500Z,101067.63
2022-12-25T23:15:12.991Z,101067.63
2022-12-25T23:17:58.686Z,101064.69
2022-12-25T23:20:44.279Z,101066.47
2022-12-25T23:23:35.332Z,101056.22
2022-12-25T23:26:09.629Z,101066.56
2022-12-25T23:28:57.562Z,101077.13
2022-12-25T23:31:39.804Z,101071.25
2022-12-25T23:34:07.227Z,101065.97
2022-12-25T23:36:34.979Z,101029.94
2022-12-25T23:39:09.046Z,101065.72
2022-12-25T23:41:38.529Z,101081.69
2022-12-25T23:44:05.743Z,101076.66
2022-12-25T23:46:32.985Z,101078.56
2022-12-25T23:49:00.160Z,101085.78
2022-12-25T23:51:27.716Z,101077.97
2022-12-25T23:53:55.063Z,101067.94
2022-12-25T23:56:22.433Z,101055.88
2022-12-25T23:58:53.020Z,101058.13
